Time;durP1;ratioP1;P1;durP2;ratioP2;P2;SDS_P1;SDS_P2;PMS_P1;PMS_P2;Temp;Humidity;BMP_temperature;BMP_pressure;BME280_temperature;BME280_humidity;BME280_pressure;Samples;Min_cycle;Max_cycle;Signal;HPM_P1;HPM_P2
2022/10/14 00:01:52;;;;;;;57.08;37.20;;;;;;;11.54;100.00;101382.41;5052813;28;20025;-63
2022/10/14 00:04:18;;;;;;;52.95;36.80;;;;;;;11.54;100.00;101373.59;5053057;28;20025;-63
2022/10/14 00:06:43;;;;;;;54.05;37.10;;;;;;;11.50;100.00;101376.22;5052711;28;20108;-63
2022/10/14 00:09:09;;;;;;;53.72;35.92;;;;;;;11.54;100.00;101376.22;5048654;28;20060;-63
2022/10/14 00:11:36;;;;;;;52.20;36.10;;;;;;;11.54;100.00;101384.19;5052758;28;20383;-63
2022/10/14 00:14:06;;;;;;;54.35;36.45;;;;;;;11.54;100.00;101384.19;5053079;28;20029;-63
2022/10/14 00:16:34;;;;;;;55.30;35.55;;;;;;;11.52;100.00;101385.03;5052829;28;20422;-63
2022/10/14 00:19:00;;;;;;;55.40;37.00;;;;;;;11.55;100.00;101377.97;5052489;28;20039;-62
2022/10/14 00:21:26;;;;;;;50.92;35.45;;;;;;;11.57;100.00;101386.84;5052837;28;20464;-63
2022/10/14 00:23:52;;;;;;;54.42;36.83;;;;;;;11.56;100.00;101385.06;5052761;28;20055;-63
2022/10/14 00:26:30;;;;;;;51.25;35.65;;;;;;;11.58;100.00;101385.97;5034256;28;20554;-63
2022/10/14 00:28:56;;;;;;;51.78;36.50;;;;;;;11.56;100.00;101379.75;5052513;28;20440;-63
2022/10/14 00:31:22;;;;;;;51.78;35.55;;;;;;;11.61;100.00;101378.94;5052695;28;20422;-62
2022/10/14 00:33:47;;;;;;;52.22;35.83;;;;;;;11.60;100.00;101374.50;5052270;28;20017;-63
2022/10/14 00:36:15;;;;;;;52.35;36.42;;;;;;;11.60;100.00;101377.16;5052808;28;20083;-63
2022/10/14 00:38:41;;;;;;;55.30;36.17;;;;;;;11.62;100.00;101372.78;5048223;28;20391;-63
2022/10/14 00:41:10;;;;;;;50.95;36.00;;;;;;;11.61;100.00;101364.81;5052308;28;20024;-63
2022/10/14 00:43:54;;;;;;;50.53;34.65;;;;;;;11.61;100.00;101363.03;5052568;28;20114;-63
2022/10/14 00:46:19;;;;;;;50.00;35.10;;;;;;;11.59;100.00;101359.50;5049644;28;20025;-64
2022/10/14 00:48:44;;;;;;;51.42;34.38;;;;;;;11.62;100.00;101359.53;5052067;28;20048;-65
2022/10/14 00:51:10;;;;;;;49.33;34.70;;;;;;;11.61;100.00;101357.75;5055226;28;20379;-63
2022/10/14 00:53:40;;;;;;;50.70;35.90;;;;;;;11.62;100.00;101348.03;5056406;28;20491;-64
2022/10/14 00:56:08;;;;;;;50.10;34.83;;;;;;;11.60;100.00;101344.50;5056293;28;20025;-64
2022/10/14 00:58:34;;;;;;;49.17;34.33;;;;;;;11.60;100.00;101355.09;5056116;28;20463;-64
2022/10/14 01:00:59;;;;;;;53.70;36.20;;;;;;;11.60;100.00;101339.22;5056454;28;20025;-62
2022/10/14 01:03:24;;;;;;;49.72;34.72;;;;;;;11.58;100.00;101340.97;5055934;28;20040;-63
2022/10/14 01:06:00;;;;;;;52.67;35.35;;;;;;;11.57;100.00;101345.34;5056258;28;20037;-63
2022/10/14 01:08:34;;;;;;;53.40;37.15;;;;;;;11.59;100.00;101342.72;5055894;28;20060;-63
2022/10/14 01:11:11;;;;;;;51.63;36.15;;;;;;;11.60;100.00;101345.38;5056130;28;20461;-62
2022/10/14 01:13:46;;;;;;;51.20;36.45;;;;;;;11.62;100.00;101343.66;5055942;28;20480;-63
2022/10/14 01:16:42;;;;;;;54.33;36.88;;;;;;;11.63;100.00;101339.22;5052380;28;20025;-62
2022/10/14 01:19:41;;;;;;;51.20;35.75;;;;;;;11.60;100.00;101326.84;5055756;28;20029;-62
2022/10/14 01:22:18;;;;;;;53.83;36.95;;;;;;;11.59;100.00;101322.44;5055707;28;20054;-63
2022/10/14 01:25:07;;;;;;;51.35;35.45;;;;;;;11.57;100.00;101312.72;5052338;28;20021;-63
2022/10/14 01:28:00;;;;;;;53.53;36.40;;;;;;;11.57;100.00;101307.41;4964554;28;20054;-63
2022/10/14 01:30:47;;;;;;;53.95;35.97;;;;;;;11.57;100.00;101310.06;4968732;28;20609;-63
2022/10/14 01:33:22;;;;;;;52.40;35.53;;;;;;;11.54;100.00;101300.31;4970986;28;20050;-63
2022/10/14 01:35:57;;;;;;;51.40;35.00;;;;;;;11.50;100.00;101294.13;4968080;28;20051;-62
2022/10/14 01:38:29;;;;;;;54.92;35.00;;;;;;;11.50;100.00;101291.50;4974825;28;20594;-63
2022/10/14 01:41:12;;;;;;;53.00;35.35;;;;;;;11.50;100.00;101286.19;4974539;28;20042;-62
2022/10/14 01:43:42;;;;;;;54.47;35.60;;;;;;;11.48;100.00;101282.63;4974547;28;20027;-63
2022/10/14 01:46:10;;;;;;;53.45;35.97;;;;;;;11.46;100.00;101276.44;4974402;28;20039;-63
2022/10/14 01:48:40;;;;;;;54.17;35.72;;;;;;;11.48;100.00;101279.97;4974553;28;20038;-63
2022/10/14 01:51:13;;;;;;;56.33;35.92;;;;;;;11.47;100.00;101280.84;4974378;28;20397;-63
2022/10/14 01:53:39;;;;;;;;;;;;;;;11.49;100.00;101280.88;4974625;28;20069;-62
2022/10/14 01:56:06;;;;;;;55.10;35.13;;;;;;;11.46;100.00;101279.09;4974406;28;19914;-63
2022/10/14 01:58:33;;;;;;;54.38;35.40;;;;;;;11.48;100.00;101277.34;4974375;28;20062;-63
2022/10/14 02:01:01;;;;;;;55.28;34.85;;;;;;;11.49;100.00;101278.25;4973638;28;20453;-63
2022/10/14 02:03:38;;;;;;;57.17;35.50;;;;;;;11.49;100.00;101280.88;4976858;28;20030;-63
2022/10/14 02:06:07;;;;;;;54.13;34.33;;;;;;;11.50;100.00;101277.34;5045955;28;20036;-63
2022/10/14 02:08:47;;;;;;;55.95;34.35;;;;;;;11.50;100.00;101270.31;5053698;28;20029;-63
2022/10/14 02:11:17;;;;;;;54.17;33.55;;;;;;;11.49;100.00;101265.88;5054884;28;20059;-63
2022/10/14 02:13:57;;;;;;;55.95;33.17;;;;;;;11.51;100.00;101272.06;5054638;28;20074;-65
2022/10/14 02:16:33;;;;;;;54.97;33.38;;;;;;;11.50;100.00;101261.47;5051313;28;20024;-65
2022/10/14 02:19:14;;;;;;;57.67;33.90;;;;;;;11.50;100.00;101259.72;5052032;28;20025;-65
2022/10/14 02:21:47;;;;;;;55.33;33.63;;;;;;;11.51;100.00;101260.59;5054789;28;20467;-65
2022/10/14 02:24:21;;;;;;;57.38;33.83;;;;;;;11.52;100.00;101255.31;5055107;28;20037;-65
2022/10/14 02:26:49;;;;;;;60.65;33.45;;;;;;;11.54;100.00;101257.09;5054546;28;20024;-65
2022/10/14 02:29:18;;;;;;;54.70;32.25;;;;;;;11.55;100.00;101251.81;5054251;28;20099;-64
2022/10/14 02:31:45;;;;;;;56.30;32.75;;;;;;;11.55;100.00;101258.84;5054475;28;20067;-65
2022/10/14 02:34:13;;;;;;;58.30;32.85;;;;;;;11.57;100.00;101254.47;5054476;28;20033;-65
2022/10/14 02:36:40;;;;;;;56.22;32.17;;;;;;;11.58;100.00;101256.25;5054487;28;20380;-65
2022/10/14 02:39:10;;;;;;;55.22;32.80;;;;;;;11.58;100.00;101258.88;5054524;28;20099;-64
2022/10/14 02:41:36;;;;;;;56.95;32.78;;;;;;;11.61;100.00;101262.44;5036284;28;20045;-65
2022/10/14 02:44:04;;;;;;;57.08;32.45;;;;;;;11.59;100.00;101263.28;5054111;28;20035;-65
2022/10/14 02:46:31;;;;;;;57.15;32.05;;;;;;;11.60;100.00;101258.00;5054075;28;20056;-64
2022/10/14 02:48:56;;;;;;;52.55;30.73;;;;;;;11.59;100.00;101250.94;5054196;28;20032;-65
2022/10/14 02:51:21;;;;;;;55.80;32.28;;;;;;;11.63;100.00;101249.19;5054276;28;20037;-65
2022/10/14 02:53:47;;;;;;;58.83;32.35;;;;;;;11.63;100.00;101246.53;5054392;28;20529;-65
2022/10/14 02:56:13;;;;;;;61.10;32.67;;;;;;;11.66;100.00;101243.91;5053890;28;20081;-65
2022/10/14 02:58:38;;;;;;;61.50;32.10;;;;;;;11.67;100.00;101232.47;5053897;28;20081;-65
2022/10/14 03:01:04;;;;;;;61.40;31.65;;;;;;;11.66;100.00;101241.25;5053955;28;20037;-65
2022/10/14 03:03:29;;;;;;;63.88;32.05;;;;;;;11.65;100.00;101239.53;5054008;28;20425;-64
2022/10/14 03:05:54;;;;;;;64.45;31.98;;;;;;;11.64;100.00;101229.78;5053784;28;20067;-65
2022/10/14 03:08:20;;;;;;;63.33;32.17;;;;;;;11.63;100.00;101228.00;5053840;28;20028;-65
2022/10/14 03:10:46;;;;;;;66.60;31.92;;;;;;;11.67;100.00;101225.38;5053631;28;20025;-65
2022/10/14 03:13:17;;;;;;;63.20;30.90;;;;;;;11.68;100.00;101226.28;5053033;28;20360;-65
2022/10/14 03:15:42;;;;;;;61.13;30.42;;;;;;;11.65;100.00;101221.84;5053717;28;20013;-65
2022/10/14 03:18:08;;;;;;;61.30;31.38;;;;;;;11.68;100.00;101216.56;5053542;28;20028;-65
2022/10/14 03:20:33;;;;;;;58.92;31.23;;;;;;;11.68;100.00;101216.56;5053452;28;20048;-65
2022/10/14 03:22:58;;;;;;;60.28;30.67;;;;;;;11.69;100.00;101212.16;5053625;28;20024;-64
2022/10/14 03:25:24;;;;;;;57.42;30.48;;;;;;;11.67;100.00;101206.84;5053462;28;20462;-65
2022/10/14 03:27:49;;;;;;;62.60;30.83;;;;;;;11.70;100.00;101211.28;5053363;28;20107;-64
2022/10/14 03:30:15;;;;;;;56.88;29.58;;;;;;;11.69;100.00;101217.44;5053248;28;20021;-64
2022/10/14 03:32:41;;;;;;;59.10;30.50;;;;;;;11.70;100.00;101208.63;5053234;28;20487;-64
2022/10/14 03:35:06;;;;;;;60.75;30.70;;;;;;;11.71;100.00;101207.75;5053122;28;20025;-65
2022/10/14 03:37:32;;;;;;;59.40;29.52;;;;;;;11.71;100.00;101196.28;5053282;28;20039;-65
2022/10/14 03:39:57;;;;;;;60.10;30.10;;;;;;;11.71;100.00;101194.53;5053351;28;20133;-64
2022/10/14 03:42:22;;;;;;;55.78;29.27;;;;;;;11.70;100.00;101198.03;5053344;28;20024;-65
2022/10/14 03:44:48;;;;;;;55.97;29.23;;;;;;;11.71;100.00;101194.53;5053456;28;20029;-64
2022/10/14 03:47:13;;;;;;;60.08;29.30;;;;;;;11.71;100.00;101189.22;5053133;28;20095;-65
2022/10/14 03:49:38;;;;;;;57.40;29.35;;;;;;;11.69;100.00;101183.94;5053104;28;20029;-65
2022/10/14 03:52:04;;;;;;;56.00;28.67;;;;;;;11.71;100.00;101189.22;5052947;28;20522;-65
2022/10/14 03:54:29;;;;;;;51.65;27.70;;;;;;;11.70;100.00;101182.16;5052824;28;20375;-65
2022/10/14 03:56:54;;;;;;;53.15;28.67;;;;;;;11.70;100.00;101182.16;5035399;28;20118;-65
2022/10/14 03:59:19;;;;;;;55.17;27.98;;;;;;;11.71;100.00;101181.28;5053176;28;20021;-64
2022/10/14 04:01:45;;;;;;;50.78;28.52;;;;;;;11.73;100.00;101182.16;5052676;28;20024;-65
2022/10/14 04:04:10;;;;;;;52.25;28.25;;;;;;;11.72;100.00;101180.38;5053302;28;20475;-63
2022/10/14 04:06:36;;;;;;;49.05;26.13;;;;;;;11.73;100.00;101173.34;5052616;28;20021;-64
2022/10/14 04:09:02;;;;;;;50.15;27.52;;;;;;;11.72;100.00;101171.56;5052582;28;20033;-64
2022/10/14 04:11:28;;;;;;;50.80;27.35;;;;;;;11.72;100.00;101171.56;5053191;28;20079;-65
2022/10/14 04:13:57;;;;;;;52.25;28.30;;;;;;;11.73;100.00;101166.28;5052701;28;20029;-64
2022/10/14 04:16:22;;;;;;;50.30;26.70;;;;;;;11.73;100.00;101171.56;5049067;28;20043;-64
2022/10/14 04:18:48;;;;;;;51.67;28.33;;;;;;;11.74;100.00;101167.19;5052836;28;20454;-65
2022/10/14 04:21:13;;;;;;;51.75;26.50;;;;;;;11.74;100.00;101170.69;5052624;28;20055;-64
2022/10/14 04:23:38;;;;;;;52.85;27.15;;;;;;;11.73;100.00;101174.22;5052640;28;20112;-65
2022/10/14 04:26:06;;;;;;;49.10;26.05;;;;;;;11.74;100.00;101172.47;5052691;28;20033;-64
2022/10/14 04:28:32;;;;;;;50.97;26.73;;;;;;;11.75;100.00;101163.63;5052364;28;20032;-64
2022/10/14 04:30:57;;;;;;;49.03;26.33;;;;;;;11.74;100.00;101162.75;5052821;28;20029;-65
2022/10/14 04:33:23;;;;;;;47.33;25.02;;;;;;;11.75;100.00;101153.03;5052274;28;20537;-64
2022/10/14 04:35:48;;;;;;;51.38;26.92;;;;;;;11.75;100.00;101161.88;5052359;28;20025;-65
2022/10/14 04:38:14;;;;;;;53.10;27.73;;;;;;;11.75;100.00;101148.66;5052439;28;20029;-65
2022/10/14 04:40:42;;;;;;;50.72;26.95;;;;;;;11.75;100.00;101153.94;5052670;28;20456;-65
2022/10/14 04:43:08;;;;;;;50.60;26.83;;;;;;;11.75;100.00;101140.69;5052248;28;20472;-65
2022/10/14 04:45:33;;;;;;;50.70;27.35;;;;;;;11.75;100.00;101148.66;5052648;28;20025;-65
2022/10/14 04:47:58;;;;;;;49.88;27.17;;;;;;;11.77;100.00;101143.34;5052145;28;20021;-65
2022/10/14 04:50:24;;;;;;;49.20;26.42;;;;;;;11.76;100.00;101145.09;5052190;28;20491;-65
2022/10/14 04:52:49;;;;;;;48.63;25.60;;;;;;;11.76;100.00;101136.28;5052734;28;20022;-65
2022/10/14 04:55:14;;;;;;;50.22;26.58;;;;;;;11.78;100.00;101134.50;5052492;28;20029;-65
2022/10/14 04:57:42;;;;;;;47.17;26.55;;;;;;;11.78;100.00;101130.13;5052159;28;20032;-64
2022/10/14 05:00:09;;;;;;;48.13;26.52;;;;;;;11.80;100.00;101140.72;5052429;28;20029;-64
2022/10/14 05:02:35;;;;;;;46.17;25.63;;;;;;;11.80;100.00;101128.34;5052035;28;20025;-64
2022/10/14 05:05:00;;;;;;;47.05;26.20;;;;;;;11.80;100.00;101140.72;5034149;28;20025;-65
2022/10/14 05:07:25;;;;;;;43.38;23.83;;;;;;;11.80;100.00;101136.28;5049403;28;20104;-64
2022/10/14 05:09:51;;;;;;;43.13;23.80;;;;;;;11.80;100.00;101131.00;5047028;28;20430;-62
2022/10/14 05:12:16;;;;;;;41.85;23.33;;;;;;;11.80;100.00;101125.69;5044155;28;20431;-64
2022/10/14 05:14:41;;;;;;;43.15;23.60;;;;;;;11.83;100.00;101130.13;5052117;28;20185;-65
2022/10/14 05:17:07;;;;;;;43.20;23.70;;;;;;;11.83;100.00;101123.06;5051979;28;20040;-65
2022/10/14 05:19:32;;;;;;;41.20;22.73;;;;;;;11.83;100.00;101115.09;5051946;28;20028;-65
2022/10/14 05:21:58;;;;;;;40.53;22.80;;;;;;;11.84;100.00;101116.88;5051814;28;20040;-64
2022/10/14 05:24:23;;;;;;;41.00;22.65;;;;;;;11.85;100.00;101113.38;5051889;28;20460;-65
2022/10/14 05:26:48;;;;;;;40.35;21.55;;;;;;;11.86;100.00;101114.25;5052224;28;20079;-65
2022/10/14 05:29:16;;;;;;;38.67;21.10;;;;;;;11.85;100.00;101102.78;5049205;28;20407;-65
2022/10/14 05:31:42;;;;;;;39.33;21.73;;;;;;;11.85;100.00;101097.47;5048218;28;20521;-64
2022/10/14 05:34:07;;;;;;;38.33;20.85;;;;;;;11.86;100.00;101093.91;5042587;28;20029;-65
2022/10/14 05:36:33;;;;;;;39.00;20.85;;;;;;;11.86;100.00;101087.75;5047060;28;20025;-65
2022/10/14 05:38:58;;;;;;;36.22;19.63;;;;;;;11.86;100.00;101093.06;5057832;28;20076;-66
2022/10/14 05:41:24;;;;;;;35.58;19.52;;;;;;;11.86;100.00;101090.41;5054351;28;20021;-65
2022/10/14 05:43:50;;;;;;;35.75;19.77;;;;;;;11.86;100.00;101085.97;5055736;28;20029;-66
2022/10/14 05:46:15;;;;;;;35.20;19.38;;;;;;;11.88;100.00;101080.69;5051332;28;20029;-66
2022/10/14 05:48:40;;;;;;;33.58;18.92;;;;;;;11.87;100.00;101081.59;5054636;28;20543;-64
2022/10/14 05:51:06;;;;;;;36.05;19.48;;;;;;;11.88;100.00;101079.81;5035793;28;20037;-66
2022/10/14 05:53:31;;;;;;;35.00;18.65;;;;;;;11.87;100.00;101078.94;5055404;28;20024;-65
2022/10/14 05:56:04;;;;;;;33.30;18.80;;;;;;;11.89;100.00;101078.94;5054279;28;20025;-66
2022/10/14 05:58:30;;;;;;;35.05;18.35;;;;;;;11.89;100.00;101069.22;5054501;28;20025;-66
2022/10/14 06:01:04;;;;;;;35.13;18.92;;;;;;;11.89;100.00;101069.22;5061328;28;20384;-65
2022/10/14 06:03:29;;;;;;;34.17;18.73;;;;;;;11.90;100.00;101068.34;5059401;28;20035;-64
2022/10/14 06:05:54;;;;;;;33.58;17.85;;;;;;;11.91;100.00;101085.09;5054060;28;20052;-65
2022/10/14 06:08:21;;;;;;;35.15;19.08;;;;;;;11.90;100.00;101073.63;5054075;28;20028;-64
2022/10/14 06:10:46;;;;;;;34.90;18.80;;;;;;;11.93;100.00;101072.78;5053851;28;20021;-65
2022/10/14 06:13:11;;;;;;;34.40;19.58;;;;;;;11.93;100.00;101070.13;5039098;28;20060;-63
2022/10/14 06:15:37;;;;;;;32.95;18.45;;;;;;;11.93;100.00;101064.81;5056457;28;20045;-65
2022/10/14 06:18:02;;;;;;;35.03;18.98;;;;;;;11.94;100.00;101063.94;5053993;28;20075;-67
2022/10/14 06:20:28;;;;;;;33.67;18.45;;;;;;;11.96;100.00;101056.91;5039801;28;20121;-66
2022/10/14 06:22:53;;;;;;;32.78;18.08;;;;;;;11.96;100.00;101060.44;5053723;28;20028;-66
2022/10/14 06:25:19;;;;;;;34.67;18.58;;;;;;;11.98;100.00;101057.78;5054064;28;20025;-65
2022/10/14 06:27:44;;;;;;;33.63;18.38;;;;;;;11.98;100.00;101056.00;5053718;28;20463;-66
2022/10/14 06:30:10;;;;;;;31.80;18.20;;;;;;;11.99;100.00;101059.56;5053516;28;20047;-66
2022/10/14 06:32:36;;;;;;;33.67;18.25;;;;;;;12.00;100.00;101062.22;5053202;28;20032;-66
2022/10/14 06:35:01;;;;;;;33.78;18.10;;;;;;;12.01;100.00;101055.13;5053896;28;20021;-64
2022/10/14 06:37:26;;;;;;;32.28;18.15;;;;;;;12.03;100.00;101056.03;5060404;28;20055;-65
2022/10/14 06:39:51;;;;;;;31.55;17.42;;;;;;;12.04;100.00;101052.50;5052936;28;20073;-65
2022/10/14 06:42:17;;;;;;;31.08;17.45;;;;;;;12.05;100.00;101048.97;5053176;28;20036;-64
2022/10/14 06:44:42;;;;;;;32.15;17.67;;;;;;;12.06;100.00;101050.75;5051691;28;20040;-65
2022/10/14 06:47:07;;;;;;;31.63;18.05;;;;;;;12.08;100.00;101058.69;5052402;28;20020;-64
2022/10/14 06:49:33;;;;;;;33.80;18.13;;;;;;;12.09;100.00;101052.53;5046211;28;20083;-65
2022/10/14 06:51:58;;;;;;;33.05;18.13;;;;;;;12.12;100.00;101053.41;5054714;28;20079;-63
2022/10/14 06:54:24;;;;;;;33.38;18.48;;;;;;;12.12;100.00;101048.09;5053172;28;20032;-63
2022/10/14 06:56:49;;;;;;;31.60;17.83;;;;;;;12.13;100.00;101046.31;5056687;28;20013;-62
2022/10/14 06:59:14;;;;;;;31.77;17.88;;;;;;;12.16;100.00;101046.34;5053619;28;20025;-62
2022/10/14 07:01:40;;;;;;;32.65;18.15;;;;;;;12.17;100.00;101040.16;5052527;28;20028;-63
2022/10/14 07:04:05;;;;;;;33.08;18.10;;;;;;;12.17;100.00;101041.06;5035583;28;20025;-63
2022/10/14 07:06:31;;;;;;;32.67;17.90;;;;;;;12.19;100.00;101031.31;5039614;28;20078;-65
2022/10/14 07:08:56;;;;;;;31.80;18.00;;;;;;;12.23;100.00;101028.66;5052352;28;20047;-65
2022/10/14 07:11:22;;;;;;;31.63;17.63;;;;;;;12.25;100.00;101026.94;5054306;28;20029;-65
2022/10/14 07:13:47;;;;;;;30.83;17.27;;;;;;;12.27;100.00;101022.50;5052987;28;20018;-65
2022/10/14 07:16:12;;;;;;;30.10;17.15;;;;;;;12.29;100.00;101026.00;5054871;28;20056;-65
2022/10/14 07:18:38;;;;;;;30.75;17.23;;;;;;;12.29;100.00;101029.56;5053981;28;20052;-65
2022/10/14 07:21:04;;;;;;;30.77;17.50;;;;;;;12.32;100.00;101039.25;5053489;28;20024;-66
2022/10/14 07:23:30;;;;;;;29.88;16.52;;;;;;;12.35;100.00;101041.94;5053401;28;20120;-65
2022/10/14 07:25:56;;;;;;;29.10;16.30;;;;;;;12.34;100.00;101042.81;5053814;28;20017;-65
2022/10/14 07:28:22;;;;;;;30.17;17.10;;;;;;;12.37;100.00;101051.63;5053251;28;20029;-64
2022/10/14 07:31:03;;;;;;;31.15;17.52;;;;;;;12.40;100.00;101048.13;5035004;28;20044;-65
2022/10/14 07:33:28;;;;;;;28.85;16.58;;;;;;;12.45;100.00;101045.44;5050763;28;20025;-64
2022/10/14 07:35:54;;;;;;;29.05;16.42;;;;;;;12.48;100.00;101053.41;5053180;28;20028;-64
2022/10/14 07:38:20;;;;;;;28.13;16.33;;;;;;;12.48;100.00;101051.66;5053264;28;20052;-65
2022/10/14 07:41:01;;;;;;;28.00;16.23;;;;;;;12.52;100.00;101048.13;5053154;28;20045;-65
2022/10/14 07:43:27;;;;;;;27.33;15.80;;;;;;;12.55;100.00;101033.97;5050245;28;20525;-65
2022/10/14 07:45:59;;;;;;;28.75;15.95;;;;;;;12.59;100.00;101037.50;5053469;28;20060;-65
2022/10/14 07:48:25;;;;;;;28.17;16.20;;;;;;;12.59;100.00;101043.69;5039172;28;20455;-65
2022/10/14 07:50:51;;;;;;;27.48;15.38;;;;;;;12.61;100.00;101038.38;5053459;28;20029;-65
2022/10/14 07:53:18;;;;;;;28.42;15.93;;;;;;;12.68;100.00;101032.19;5035377;28;20112;-65
2022/10/14 07:55:51;;;;;;;27.40;15.43;;;;;;;12.72;100.00;101033.94;5034628;28;20041;-65
2022/10/14 07:58:21;;;;;;;26.15;15.20;;;;;;;12.75;100.00;101035.72;5052878;28;20021;-64
2022/10/14 08:00:48;;;;;;;26.70;15.30;;;;;;;12.79;100.00;101035.72;5053249;28;20048;-65
2022/10/14 08:03:13;;;;;;;26.00;15.02;;;;;;;12.85;100.00;101026.84;5052926;28;20025;-65
2022/10/14 08:05:39;;;;;;;25.67;14.75;;;;;;;12.87;100.00;101028.63;5049538;28;20681;-64
2022/10/14 08:08:05;;;;;;;25.75;14.27;;;;;;;12.91;100.00;101030.34;5044026;28;20040;-67
2022/10/14 08:10:31;;;;;;;24.48;14.05;;;;;;;12.93;100.00;101018.88;5051458;28;20025;-66
2022/10/14 08:12:56;;;;;;;25.90;14.65;;;;;;;13.01;100.00;101022.41;5053770;28;20033;-63
2022/10/14 08:15:22;;;;;;;25.33;14.48;;;;;;;13.07;100.00;101028.56;5053089;28;20025;-65
2022/10/14 08:17:47;;;;;;;25.50;14.23;;;;;;;13.13;100.00;101032.97;5055515;28;20029;-65
2022/10/14 08:20:12;;;;;;;24.75;13.65;;;;;;;13.17;100.00;101018.78;5051103;28;20028;-65
2022/10/14 08:22:38;;;;;;;25.10;13.60;;;;;;;13.21;100.00;101015.25;5044920;28;20037;-63
2022/10/14 08:25:03;;;;;;;24.33;13.63;;;;;;;13.26;100.00;101012.56;5051152;28;20533;-62
2022/10/14 08:27:29;;;;;;;23.92;13.45;;;;;;;13.28;100.00;101012.56;5052293;28;20111;-62
2022/10/14 08:29:54;;;;;;;24.00;12.65;;;;;;;13.31;100.00;101017.84;5048309;28;20079;-62
2022/10/14 08:32:19;;;;;;;24.20;12.63;;;;;;;13.37;100.00;101013.44;5048393;28;20111;-63
2022/10/14 08:34:45;;;;;;;25.08;13.55;;;;;;;13.43;100.00;101023.16;5054246;28;20021;-63
2022/10/14 08:37:10;;;;;;;24.95;13.32;;;;;;;13.36;100.00;101019.63;5051261;28;20115;-64
2022/10/14 08:39:36;;;;;;;24.13;12.60;;;;;;;13.37;100.00;101023.19;5049175;28;20041;-63
2022/10/14 08:42:28;;;;;;;24.48;13.20;;;;;;;13.39;100.00;101027.59;5052666;28;20025;-64
2022/10/14 08:45:07;;;;;;;23.35;12.88;;;;;;;13.38;100.00;101019.63;5050465;28;20029;-63
2022/10/14 08:47:38;;;;;;;23.58;12.60;;;;;;;13.40;100.00;101024.06;5051623;28;20021;-62
2022/10/14 08:50:16;;;;;;;24.02;12.60;;;;;;;13.48;100.00;101017.81;5050104;28;20029;-64
2022/10/14 08:52:49;;;;;;;24.13;13.15;;;;;;;13.49;100.00;101020.47;5050373;28;20491;-64
2022/10/14 08:55:25;;;;;;;23.88;13.38;;;;;;;13.50;100.00;101014.28;5050150;28;20100;-64
2022/10/14 08:58:13;;;;;;;23.77;13.25;;;;;;;13.50;100.00;101010.72;5051134;28;20025;-65
2022/10/14 09:00:41;;;;;;;24.83;13.70;;;;;;;13.51;100.00;101012.50;5048661;28;20074;-64
2022/10/14 09:03:31;;;;;;;24.42;13.55;;;;;;;13.51;100.00;101015.16;5047841;28;20025;-62
2022/10/14 09:06:01;;;;;;;23.10;12.68;;;;;;;13.53;100.00;101010.72;5047995;28;20025;-62
2022/10/14 09:08:37;;;;;;;24.48;12.90;;;;;;;13.55;100.00;101011.59;5043904;28;20052;-63
2022/10/14 09:11:04;;;;;;;23.92;13.45;;;;;;;13.56;100.00;101008.06;5046870;28;20032;-62
2022/10/14 09:13:37;;;;;;;23.88;13.50;;;;;;;13.65;100.00;101004.47;5054069;28;20029;-63
2022/10/14 09:16:08;;;;;;;23.77;13.40;;;;;;;13.63;100.00;101004.47;5057324;28;20052;-63
2022/10/14 09:18:42;;;;;;;24.45;13.70;;;;;;;13.68;100.00;101004.44;5056935;28;20039;-64
2022/10/14 09:21:37;;;;;;;23.75;13.75;;;;;;;13.80;100.00;101009.66;5054437;28;20436;-64
2022/10/14 09:24:13;;;;;;;24.13;13.20;;;;;;;13.78;100.00;101000.84;4995219;28;20045;-63
2022/10/14 09:26:41;;;;;;;23.35;12.98;;;;;;;13.79;100.00;100999.94;4995935;28;20049;-62
2022/10/14 09:29:37;;;;;;;22.35;12.63;;;;;;;13.79;100.00;100991.97;4995030;28;20697;-62
2022/10/14 09:32:08;;;;;;;23.15;12.57;;;;;;;13.77;100.00;100984.03;4991224;28;20034;-62
2022/10/14 09:34:52;;;;;;;23.30;12.75;;;;;;;13.81;100.00;100990.19;4993785;28;20041;-62
2022/10/14 09:37:46;;;;;;;22.88;12.27;;;;;;;13.82;100.00;100994.63;4992102;28;20030;-63
2022/10/14 09:40:12;;;;;;;22.85;12.43;;;;;;;13.78;100.00;100991.06;4914808;29;20469;-63
2022/10/14 09:42:40;;;;;;;22.60;11.68;;;;;;;13.68;100.00;100991.16;4909697;29;20111;-62
2022/10/14 09:45:11;;;;;;;23.15;12.18;;;;;;;13.61;100.00;100979.69;4916509;29;20073;-63
2022/10/14 09:47:49;;;;;;;22.77;12.30;;;;;;;13.58;100.00;100980.56;4918210;29;20050;-63
2022/10/14 09:50:24;;;;;;;22.63;12.40;;;;;;;13.65;100.00;100991.19;4915578;29;20131;-63
2022/10/14 09:53:19;;;;;;;22.75;12.57;;;;;;;13.73;100.00;100986.69;4919578;29;20067;-63
2022/10/14 09:55:48;;;;;;;22.50;11.85;;;;;;;13.80;100.00;100988.41;4861179;29;20076;-63
2022/10/14 09:58:17;;;;;;;22.55;11.98;;;;;;;13.87;100.00;100971.53;4861230;29;20044;-62
2022/10/14 10:00:45;;;;;;;22.00;11.40;;;;;;;13.84;100.00;100976.00;4874225;29;20424;-64
2022/10/14 10:03:25;;;;;;;21.73;11.40;;;;;;;13.72;100.00;100969.00;4889179;29;20060;-64
2022/10/14 10:06:08;;;;;;;22.40;11.98;;;;;;;13.65;100.00;100970.81;4889178;29;20041;-64
2022/10/14 10:08:38;;;;;;;22.05;11.95;;;;;;;13.63;100.00;100972.59;4889202;29;20130;-64
2022/10/14 10:11:10;;;;;;;24.45;13.05;;;;;;;13.58;100.00;100975.25;4887374;29;20053;-64
2022/10/14 10:13:47;;;;;;;23.27;13.30;;;;;;;13.55;100.00;100972.63;4886880;29;20048;-63
2022/10/14 10:16:24;;;;;;;24.63;13.57;;;;;;;13.56;100.00;100966.44;4907374;28;20248;-62
2022/10/14 10:18:51;;;;;;;25.98;14.48;;;;;;;13.60;100.00;100969.94;4957591;28;20027;-62
2022/10/14 10:21:31;;;;;;;25.15;14.57;;;;;;;13.55;100.00;100963.78;4941216;28;20062;-62
2022/10/14 10:23:58;;;;;;;26.90;15.55;;;;;;;13.55;100.00;100964.66;4962537;28;20175;-62
2022/10/14 10:26:28;;;;;;;25.77;15.35;;;;;;;13.52;100.00;100964.69;4954434;29;20043;-62
2022/10/14 10:28:58;;;;;;;26.98;15.60;;;;;;;13.51;100.00;100957.59;4954218;28;20046;-63
2022/10/14 10:31:33;;;;;;;25.38;14.98;;;;;;;13.53;100.00;100960.28;4965339;28;20551;-62
2022/10/14 10:34:02;;;;;;;26.38;14.93;;;;;;;13.48;100.00;100954.09;5050899;28;20460;-61
2022/10/14 10:36:39;;;;;;;26.60;15.25;;;;;;;13.50;100.00;100957.59;5050415;28;20492;-62
2022/10/14 10:39:26;;;;;;;28.20;16.35;;;;;;;13.64;100.00;100952.22;5051192;28;20511;-62
2022/10/14 10:42:04;;;;;;;27.67;15.77;;;;;;;13.64;100.00;100946.91;5054592;28;20051;-62
2022/10/14 10:44:48;;;;;;;26.88;16.13;;;;;;;13.68;100.00;100938.03;5050938;28;20036;-62
2022/10/14 10:47:31;;;;;;;26.30;15.45;;;;;;;13.69;100.00;100938.03;5052549;28;20084;-63
2022/10/14 10:50:15;;;;;;;25.25;15.45;;;;;;;13.63;100.00;100945.13;5050043;28;20373;-62
2022/10/14 10:53:05;;;;;;;25.73;14.65;;;;;;;13.64;100.00;100944.25;5052268;28;20040;-62
2022/10/14 10:55:43;;;;;;;24.90;13.65;;;;;;;13.57;100.00;100951.38;5050453;28;20032;-64
2022/10/14 10:59:00;;;;;;;25.00;14.38;;;;;;;13.57;100.00;100939.00;5051523;28;20033;-62
2022/10/14 11:01:51;;;;;;;25.10;14.15;;;;;;;13.63;100.00;100935.41;4962141;28;20509;-64
2022/10/14 11:04:44;;;;;;;25.63;15.40;;;;;;;13.66;100.00;100932.72;4971777;28;20042;-64
2022/10/14 11:13:29;;;;;;;24.25;14.13;;;;;;;13.59;100.00;100923.03;4971747;28;20100;-64
2022/10/14 11:16:03;;;;;;;25.27;14.80;;;;;;;13.65;100.00;100924.78;4973061;28;20042;-64
2022/10/14 11:19:01;;;;;;;25.30;14.85;;;;;;;13.70;100.00;100920.28;4965164;28;20062;-63
2022/10/14 11:21:29;;;;;;;25.38;15.15;;;;;;;13.64;100.00;100920.34;4972988;28;20126;-64